sensor_id;sensor_type;location;lat;lon;timestamp;P1;durP1;ratioP1;P2;durP2;ratioP2
18142;SDS011;9197;50.930;3.140;2023-03-08T00:01:46;25.63;;;17.60;;
18142;SDS011;9197;50.930;3.140;2023-03-08T00:04:13;28.83;;;18.33;;
18142;SDS011;9197;50.930;3.140;2023-03-08T00:06:41;29.60;;;19.23;;
18142;SDS011;9197;50.930;3.140;2023-03-08T00:09:08;26.23;;;17.63;;
18142;SDS011;9197;50.930;3.140;2023-03-08T00:11:35;25.80;;;18.07;;
18142;SDS011;9197;50.930;3.140;2023-03-08T00:14:04;28.10;;;18.60;;
18142;SDS011;9197;50.930;3.140;2023-03-08T00:16:31;25.10;;;17.87;;
18142;SDS011;9197;50.930;3.140;2023-03-08T00:18:58;27.00;;;18.10;;
18142;SDS011;9197;50.930;3.140;2023-03-08T00:21:25;21.10;;;15.90;;
18142;SDS011;9197;50.930;3.140;2023-03-08T00:23:53;20.73;;;17.03;;
18142;SDS011;9197;50.930;3.140;2023-03-08T00:26:20;25.73;;;17.20;;
18142;SDS011;9197;50.930;3.140;2023-03-08T00:28:47;23.90;;;17.20;;
18142;SDS011;9197;50.930;3.140;2023-03-08T00:31:15;22.93;;;16.00;;
18142;SDS011;9197;50.930;3.140;2023-03-08T00:33:43;23.17;;;16.07;;
18142;SDS011;9197;50.930;3.140;2023-03-08T00:36:12;22.10;;;16.03;;
18142;SDS011;9197;50.930;3.140;2023-03-08T00:38:40;21.37;;;14.00;;
18142;SDS011;9197;50.930;3.140;2023-03-08T00:41:07;27.27;;;17.10;;
18142;SDS011;9197;50.930;3.140;2023-03-08T00:43:34;24.03;;;16.50;;
18142;SDS011;9197;50.930;3.140;2023-03-08T00:46:01;22.43;;;15.33;;
18142;SDS011;9197;50.930;3.140;2023-03-08T00:48:30;18.80;;;13.50;;
18142;SDS011;9197;50.930;3.140;2023-03-08T00:50:57;25.23;;;16.37;;
18142;SDS011;9197;50.930;3.140;2023-03-08T00:53:24;22.00;;;15.63;;
18142;SDS011;9197;50.930;3.140;2023-03-08T00:55:52;25.77;;;14.53;;
18142;SDS011;9197;50.930;3.140;2023-03-08T00:58:20;25.83;;;16.27;;
18142;SDS011;9197;50.930;3.140;2023-03-08T01:00:47;24.50;;;15.83;;
18142;SDS011;9197;50.930;3.140;2023-03-08T01:03:15;25.37;;;15.90;;
18142;SDS011;9197;50.930;3.140;2023-03-08T01:05:44;23.67;;;15.80;;
18142;SDS011;9197;50.930;3.140;2023-03-08T01:08:12;26.93;;;16.83;;
18142;SDS011;9197;50.930;3.140;2023-03-08T01:10:40;24.40;;;16.73;;
18142;SDS011;9197;50.930;3.140;2023-03-08T01:13:12;27.37;;;16.87;;
18142;SDS011;9197;50.930;3.140;2023-03-08T01:15:39;28.20;;;16.30;;
18142;SDS011;9197;50.930;3.140;2023-03-08T01:18:06;24.73;;;16.97;;
18142;SDS011;9197;50.930;3.140;2023-03-08T01:20:34;28.63;;;18.27;;
18142;SDS011;9197;50.930;3.140;2023-03-08T01:23:02;29.37;;;20.27;;
18142;SDS011;9197;50.930;3.140;2023-03-08T01:25:30;34.63;;;19.63;;
18142;SDS011;9197;50.930;3.140;2023-03-08T01:27:57;28.60;;;17.87;;
18142;SDS011;9197;50.930;3.140;2023-03-08T01:30:24;36.37;;;19.67;;
18142;SDS011;9197;50.930;3.140;2023-03-08T01:32:51;34.13;;;19.90;;
18142;SDS011;9197;50.930;3.140;2023-03-08T01:35:19;26.00;;;18.33;;
18142;SDS011;9197;50.930;3.140;2023-03-08T01:37:48;30.57;;;19.33;;
18142;SDS011;9197;50.930;3.140;2023-03-08T01:40:19;24.90;;;15.67;;
18142;SDS011;9197;50.930;3.140;2023-03-08T01:42:46;22.60;;;15.20;;
18142;SDS011;9197;50.930;3.140;2023-03-08T01:47:59;20.33;;;14.63;;
18142;SDS011;9197;50.930;3.140;2023-03-08T01:50:26;21.83;;;13.90;;
18142;SDS011;9197;50.930;3.140;2023-03-08T01:52:54;19.17;;;11.83;;
18142;SDS011;9197;50.930;3.140;2023-03-08T01:55:22;18.27;;;11.07;;
18142;SDS011;9197;50.930;3.140;2023-03-08T01:57:50;18.03;;;11.17;;
18142;SDS011;9197;50.930;3.140;2023-03-08T02:00:20;17.10;;;10.77;;
18142;SDS011;9197;50.930;3.140;2023-03-08T02:02:48;13.20;;;9.80;;
18142;SDS011;9197;50.930;3.140;2023-03-08T02:05:16;14.73;;;8.53;;
18142;SDS011;9197;50.930;3.140;2023-03-08T02:07:44;14.30;;;8.97;;
18142;SDS011;9197;50.930;3.140;2023-03-08T02:10:11;12.90;;;8.57;;
18142;SDS011;9197;50.930;3.140;2023-03-08T02:12:40;10.47;;;7.90;;
18142;SDS011;9197;50.930;3.140;2023-03-08T02:15:09;14.20;;;9.20;;
18142;SDS011;9197;50.930;3.140;2023-03-08T02:17:38;9.63;;;7.40;;
18142;SDS011;9197;50.930;3.140;2023-03-08T02:20:07;13.03;;;9.50;;
18142;SDS011;9197;50.930;3.140;2023-03-08T02:22:38;8.97;;;7.07;;
18142;SDS011;9197;50.930;3.140;2023-03-08T02:25:08;11.80;;;9.03;;
18142;SDS011;9197;50.930;3.140;2023-03-08T02:27:39;10.03;;;7.13;;
18142;SDS011;9197;50.930;3.140;2023-03-08T02:30:07;10.07;;;6.57;;
18142;SDS011;9197;50.930;3.140;2023-03-08T02:32:34;10.13;;;6.23;;
18142;SDS011;9197;50.930;3.140;2023-03-08T02:35:01;11.10;;;7.30;;
18142;SDS011;9197;50.930;3.140;2023-03-08T02:37:29;13.87;;;8.80;;
18142;SDS011;9197;50.930;3.140;2023-03-08T02:39:59;12.37;;;7.90;;
18142;SDS011;9197;50.930;3.140;2023-03-08T02:42:26;14.00;;;8.10;;
18142;SDS011;9197;50.930;3.140;2023-03-08T02:44:53;12.57;;;7.80;;
18142;SDS011;9197;50.930;3.140;2023-03-08T02:47:20;16.67;;;9.07;;
18142;SDS011;9197;50.930;3.140;2023-03-08T02:49:48;15.17;;;7.27;;
18142;SDS011;9197;50.930;3.140;2023-03-08T02:52:15;9.90;;;6.20;;
18142;SDS011;9197;50.930;3.140;2023-03-08T02:54:42;10.20;;;6.33;;
18142;SDS011;9197;50.930;3.140;2023-03-08T02:57:11;13.27;;;7.83;;
18142;SDS011;9197;50.930;3.140;2023-03-08T02:59:38;12.63;;;8.23;;
18142;SDS011;9197;50.930;3.140;2023-03-08T03:02:05;11.73;;;7.57;;
18142;SDS011;9197;50.930;3.140;2023-03-08T03:04:32;6.57;;;4.77;;
18142;SDS011;9197;50.930;3.140;2023-03-08T03:06:59;12.93;;;8.17;;
18142;SDS011;9197;50.930;3.140;2023-03-08T03:09:27;13.77;;;7.10;;
18142;SDS011;9197;50.930;3.140;2023-03-08T03:11:54;11.13;;;8.17;;
18142;SDS011;9197;50.930;3.140;2023-03-08T03:14:25;15.10;;;8.47;;
18142;SDS011;9197;50.930;3.140;2023-03-08T03:16:53;11.03;;;7.07;;
18142;SDS011;9197;50.930;3.140;2023-03-08T03:19:20;11.63;;;8.00;;
18142;SDS011;9197;50.930;3.140;2023-03-08T03:21:47;12.07;;;9.73;;
18142;SDS011;9197;50.930;3.140;2023-03-08T03:24:14;14.83;;;11.37;;
18142;SDS011;9197;50.930;3.140;2023-03-08T03:26:41;14.80;;;10.57;;
18142;SDS011;9197;50.930;3.140;2023-03-08T03:29:09;15.63;;;10.77;;
18142;SDS011;9197;50.930;3.140;2023-03-08T03:31:37;12.43;;;9.10;;
18142;SDS011;9197;50.930;3.140;2023-03-08T03:34:04;10.90;;;7.93;;
18142;SDS011;9197;50.930;3.140;2023-03-08T03:36:32;9.23;;;6.80;;
18142;SDS011;9197;50.930;3.140;2023-03-08T03:38:59;7.23;;;5.07;;
18142;SDS011;9197;50.930;3.140;2023-03-08T03:41:26;7.77;;;5.37;;
18142;SDS011;9197;50.930;3.140;2023-03-08T03:43:54;8.23;;;5.20;;
18142;SDS011;9197;50.930;3.140;2023-03-08T03:46:21;7.90;;;5.40;;
18142;SDS011;9197;50.930;3.140;2023-03-08T03:48:49;8.23;;;5.13;;
18142;SDS011;9197;50.930;3.140;2023-03-08T03:51:17;10.13;;;6.27;;
18142;SDS011;9197;50.930;3.140;2023-03-08T03:53:45;9.50;;;6.53;;
18142;SDS011;9197;50.930;3.140;2023-03-08T03:56:13;7.30;;;5.70;;
18142;SDS011;9197;50.930;3.140;2023-03-08T03:58:41;7.30;;;4.83;;
18142;SDS011;9197;50.930;3.140;2023-03-08T04:01:08;11.07;;;6.67;;
18142;SDS011;9197;50.930;3.140;2023-03-08T04:03:36;8.07;;;5.97;;
18142;SDS011;9197;50.930;3.140;2023-03-08T04:06:05;9.30;;;6.23;;
18142;SDS011;9197;50.930;3.140;2023-03-08T04:08:33;7.83;;;4.83;;
18142;SDS011;9197;50.930;3.140;2023-03-08T04:11:06;9.63;;;6.27;;
18142;SDS011;9197;50.930;3.140;2023-03-08T04:13:33;6.80;;;5.20;;
18142;SDS011;9197;50.930;3.140;2023-03-08T04:16:07;6.90;;;5.23;;
18142;SDS011;9197;50.930;3.140;2023-03-08T04:18:34;9.50;;;5.70;;
18142;SDS011;9197;50.930;3.140;2023-03-08T04:21:01;6.50;;;5.23;;
18142;SDS011;9197;50.930;3.140;2023-03-08T04:23:30;8.50;;;5.63;;
18142;SDS011;9197;50.930;3.140;2023-03-08T04:25:57;8.50;;;5.97;;
18142;SDS011;9197;50.930;3.140;2023-03-08T04:28:24;8.60;;;5.33;;
18142;SDS011;9197;50.930;3.140;2023-03-08T04:30:52;6.80;;;5.17;;
18142;SDS011;9197;50.930;3.140;2023-03-08T04:33:19;9.57;;;5.90;;
18142;SDS011;9197;50.930;3.140;2023-03-08T04:35:46;5.80;;;5.00;;
18142;SDS011;9197;50.930;3.140;2023-03-08T04:38:14;7.70;;;5.97;;
18142;SDS011;9197;50.930;3.140;2023-03-08T04:40:47;9.20;;;6.13;;
18142;SDS011;9197;50.930;3.140;2023-03-08T04:43:30;8.53;;;6.47;;
18142;SDS011;9197;50.930;3.140;2023-03-08T04:45:58;5.13;;;4.17;;
18142;SDS011;9197;50.930;3.140;2023-03-08T04:48:25;6.70;;;5.63;;
18142;SDS011;9197;50.930;3.140;2023-03-08T04:50:52;9.13;;;7.07;;
18142;SDS011;9197;50.930;3.140;2023-03-08T04:53:20;9.40;;;7.93;;
18142;SDS011;9197;50.930;3.140;2023-03-08T04:55:48;10.80;;;6.80;;
18142;SDS011;9197;50.930;3.140;2023-03-08T04:58:16;7.67;;;5.37;;
18142;SDS011;9197;50.930;3.140;2023-03-08T05:00:43;9.60;;;5.97;;
18142;SDS011;9197;50.930;3.140;2023-03-08T05:03:13;11.97;;;7.67;;
18142;SDS011;9197;50.930;3.140;2023-03-08T05:05:43;9.23;;;6.90;;
18142;SDS011;9197;50.930;3.140;2023-03-08T05:08:11;11.40;;;8.47;;
18142;SDS011;9197;50.930;3.140;2023-03-08T05:10:38;12.97;;;8.47;;
18142;SDS011;9197;50.930;3.140;2023-03-08T05:13:06;9.23;;;7.33;;
18142;SDS011;9197;50.930;3.140;2023-03-08T05:15:34;9.73;;;7.30;;
18142;SDS011;9197;50.930;3.140;2023-03-08T05:18:01;8.93;;;6.77;;
18142;SDS011;9197;50.930;3.140;2023-03-08T05:20:28;11.00;;;8.00;;
18142;SDS011;9197;50.930;3.140;2023-03-08T05:22:55;11.63;;;7.80;;
18142;SDS011;9197;50.930;3.140;2023-03-08T05:25:22;17.07;;;10.50;;
18142;SDS011;9197;50.930;3.140;2023-03-08T05:27:50;17.17;;;9.43;;
18142;SDS011;9197;50.930;3.140;2023-03-08T05:30:18;15.50;;;10.50;;
18142;SDS011;9197;50.930;3.140;2023-03-08T05:32:45;11.33;;;7.37;;
18142;SDS011;9197;50.930;3.140;2023-03-08T05:35:13;18.43;;;11.63;;
18142;SDS011;9197;50.930;3.140;2023-03-08T05:37:40;16.77;;;11.53;;
18142;SDS011;9197;50.930;3.140;2023-03-08T05:40:08;15.93;;;9.43;;
18142;SDS011;9197;50.930;3.140;2023-03-08T05:42:35;11.30;;;8.10;;
18142;SDS011;9197;50.930;3.140;2023-03-08T05:45:02;14.03;;;9.37;;
18142;SDS011;9197;50.930;3.140;2023-03-08T05:47:31;14.37;;;8.77;;
18142;SDS011;9197;50.930;3.140;2023-03-08T05:49:58;20.50;;;11.83;;
18142;SDS011;9197;50.930;3.140;2023-03-08T05:52:25;15.67;;;9.80;;
18142;SDS011;9197;50.930;3.140;2023-03-08T05:54:53;16.67;;;9.20;;
18142;SDS011;9197;50.930;3.140;2023-03-08T05:57:20;11.53;;;7.13;;
18142;SDS011;9197;50.930;3.140;2023-03-08T05:59:47;15.60;;;8.43;;
18142;SDS011;9197;50.930;3.140;2023-03-08T06:02:14;9.23;;;7.37;;
18142;SDS011;9197;50.930;3.140;2023-03-08T06:04:43;10.87;;;8.13;;
18142;SDS011;9197;50.930;3.140;2023-03-08T06:07:10;17.93;;;8.67;;
18142;SDS011;9197;50.930;3.140;2023-03-08T06:09:37;16.27;;;10.20;;
18142;SDS011;9197;50.930;3.140;2023-03-08T06:12:05;19.57;;;9.70;;
18142;SDS011;9197;50.930;3.140;2023-03-08T06:14:32;13.97;;;9.00;;
18142;SDS011;9197;50.930;3.140;2023-03-08T06:16:59;12.23;;;8.70;;
18142;SDS011;9197;50.930;3.140;2023-03-08T06:19:27;17.33;;;9.73;;
18142;SDS011;9197;50.930;3.140;2023-03-08T06:21:55;17.43;;;9.97;;
18142;SDS011;9197;50.930;3.140;2023-03-08T06:24:22;18.67;;;11.17;;
18142;SDS011;9197;50.930;3.140;2023-03-08T06:26:49;18.63;;;11.23;;
18142;SDS011;9197;50.930;3.140;2023-03-08T06:29:18;19.90;;;11.73;;
18142;SDS011;9197;50.930;3.140;2023-03-08T06:31:45;16.60;;;11.47;;
18142;SDS011;9197;50.930;3.140;2023-03-08T06:34:12;15.07;;;10.40;;
18142;SDS011;9197;50.930;3.140;2023-03-08T06:36:40;17.70;;;10.63;;
18142;SDS011;9197;50.930;3.140;2023-03-08T06:39:08;19.73;;;11.03;;
18142;SDS011;9197;50.930;3.140;2023-03-08T06:41:35;18.97;;;12.33;;
18142;SDS011;9197;50.930;3.140;2023-03-08T06:44:04;16.77;;;10.23;;
18142;SDS011;9197;50.930;3.140;2023-03-08T06:46:31;12.33;;;8.53;;
18142;SDS011;9197;50.930;3.140;2023-03-08T06:48:58;12.77;;;8.73;;
18142;SDS011;9197;50.930;3.140;2023-03-08T06:51:25;18.27;;;10.77;;
18142;SDS011;9197;50.930;3.140;2023-03-08T06:53:53;10.60;;;7.13;;
18142;SDS011;9197;50.930;3.140;2023-03-08T06:56:21;11.83;;;8.17;;
18142;SDS011;9197;50.930;3.140;2023-03-08T06:58:48;13.13;;;8.70;;
18142;SDS011;9197;50.930;3.140;2023-03-08T07:01:15;12.00;;;9.33;;
18142;SDS011;9197;50.930;3.140;2023-03-08T07:03:43;11.67;;;9.00;;
18142;SDS011;9197;50.930;3.140;2023-03-08T07:06:13;13.43;;;8.90;;
18142;SDS011;9197;50.930;3.140;2023-03-08T07:08:40;15.77;;;10.37;;
18142;SDS011;9197;50.930;3.140;2023-03-08T07:11:07;11.17;;;6.97;;
18142;SDS011;9197;50.930;3.140;2023-03-08T07:13:36;16.80;;;8.97;;
18142;SDS011;9197;50.930;3.140;2023-03-08T07:16:04;12.27;;;8.83;;
18142;SDS011;9197;50.930;3.140;2023-03-08T07:18:34;10.67;;;8.10;;
18142;SDS011;9197;50.930;3.140;2023-03-08T07:21:02;12.20;;;7.87;;
18142;SDS011;9197;50.930;3.140;2023-03-08T07:23:29;15.00;;;9.83;;
18142;SDS011;9197;50.930;3.140;2023-03-08T07:25:56;12.70;;;8.17;;
18142;SDS011;9197;50.930;3.140;2023-03-08T07:28:23;10.13;;;7.23;;
18142;SDS011;9197;50.930;3.140;2023-03-08T07:30:52;10.73;;;7.20;;
18142;SDS011;9197;50.930;3.140;2023-03-08T07:33:19;11.23;;;7.03;;
18142;SDS011;9197;50.930;3.140;2023-03-08T07:35:46;17.07;;;10.23;;
18142;SDS011;9197;50.930;3.140;2023-03-08T07:38:14;11.77;;;7.00;;
18142;SDS011;9197;50.930;3.140;2023-03-08T07:40:41;9.17;;;6.07;;
18142;SDS011;9197;50.930;3.140;2023-03-08T07:43:09;8.50;;;6.73;;
18142;SDS011;9197;50.930;3.140;2023-03-08T07:45:36;11.13;;;7.57;;
18142;SDS011;9197;50.930;3.140;2023-03-08T07:48:06;12.70;;;7.23;;
18142;SDS011;9197;50.930;3.140;2023-03-08T07:50:33;8.90;;;6.60;;
18142;SDS011;9197;50.930;3.140;2023-03-08T07:53:00;8.97;;;6.83;;
18142;SDS011;9197;50.930;3.140;2023-03-08T07:55:28;9.40;;;7.53;;
18142;SDS011;9197;50.930;3.140;2023-03-08T07:57:55;13.17;;;8.50;;
18142;SDS011;9197;50.930;3.140;2023-03-08T08:00:23;10.07;;;7.27;;
18142;SDS011;9197;50.930;3.140;2023-03-08T08:02:50;7.87;;;6.17;;
18142;SDS011;9197;50.930;3.140;2023-03-08T08:05:19;8.27;;;5.20;;
18142;SDS011;9197;50.930;3.140;2023-03-08T08:07:46;9.90;;;7.70;;
18142;SDS011;9197;50.930;3.140;2023-03-08T08:10:14;6.80;;;6.07;;
18142;SDS011;9197;50.930;3.140;2023-03-08T08:12:41;5.43;;;4.93;;
18142;SDS011;9197;50.930;3.140;2023-03-08T08:15:09;12.53;;;9.10;;
18142;SDS011;9197;50.930;3.140;2023-03-08T08:17:36;9.37;;;6.27;;
18142;SDS011;9197;50.930;3.140;2023-03-08T08:20:03;11.60;;;8.60;;
18142;SDS011;9197;50.930;3.140;2023-03-08T08:22:34;9.90;;;6.20;;
18142;SDS011;9197;50.930;3.140;2023-03-08T08:25:02;13.20;;;7.33;;
18142;SDS011;9197;50.930;3.140;2023-03-08T08:27:29;8.03;;;6.37;;
18142;SDS011;9197;50.930;3.140;2023-03-08T08:29:57;7.07;;;6.23;;
18142;SDS011;9197;50.930;3.140;2023-03-08T08:32:24;10.87;;;8.80;;
18142;SDS011;9197;50.930;3.140;2023-03-08T08:34:51;10.17;;;8.03;;
18142;SDS011;9197;50.930;3.140;2023-03-08T08:37:18;8.07;;;6.90;;
18142;SDS011;9197;50.930;3.140;2023-03-08T08:39:47;9.47;;;7.20;;
18142;SDS011;9197;50.930;3.140;2023-03-08T08:42:14;7.03;;;5.43;;
18142;SDS011;9197;50.930;3.140;2023-03-08T08:44:41;11.20;;;7.73;;
18142;SDS011;9197;50.930;3.140;2023-03-08T08:47:09;14.60;;;9.00;;
18142;SDS011;9197;50.930;3.140;2023-03-08T08:49:36;11.87;;;9.37;;
18142;SDS011;9197;50.930;3.140;2023-03-08T08:52:03;10.77;;;6.63;;
18142;SDS011;9197;50.930;3.140;2023-03-08T08:54:30;12.37;;;7.80;;
18142;SDS011;9197;50.930;3.140;2023-03-08T08:56:59;8.53;;;6.93;;
18142;SDS011;9197;50.930;3.140;2023-03-08T08:59:26;12.53;;;8.37;;
18142;SDS011;9197;50.930;3.140;2023-03-08T09:01:54;14.27;;;11.23;;
18142;SDS011;9197;50.930;3.140;2023-03-08T09:04:21;12.30;;;8.67;;
18142;SDS011;9197;50.930;3.140;2023-03-08T09:06:48;12.13;;;9.80;;
18142;SDS011;9197;50.930;3.140;2023-03-08T09:09:17;14.50;;;9.87;;
18142;SDS011;9197;50.930;3.140;2023-03-08T09:11:44;11.80;;;8.60;;
18142;SDS011;9197;50.930;3.140;2023-03-08T09:14:14;11.27;;;8.17;;
18142;SDS011;9197;50.930;3.140;2023-03-08T09:16:41;7.87;;;6.30;;
18142;SDS011;9197;50.930;3.140;2023-03-08T09:19:08;9.57;;;7.37;;
18142;SDS011;9197;50.930;3.140;2023-03-08T09:21:36;10.93;;;8.73;;
18142;SDS011;9197;50.930;3.140;2023-03-08T09:24:04;15.10;;;10.03;;
18142;SDS011;9197;50.930;3.140;2023-03-08T09:26:34;18.27;;;11.77;;
18142;SDS011;9197;50.930;3.140;2023-03-08T09:29:01;11.47;;;8.20;;
18142;SDS011;9197;50.930;3.140;2023-03-08T09:31:32;15.53;;;10.73;;
18142;SDS011;9197;50.930;3.140;2023-03-08T09:34:00;12.27;;;9.47;;
18142;SDS011;9197;50.930;3.140;2023-03-08T09:36:32;14.60;;;10.27;;
18142;SDS011;9197;50.930;3.140;2023-03-08T09:38:59;10.13;;;6.93;;
18142;SDS011;9197;50.930;3.140;2023-03-08T09:41:40;13.47;;;10.80;;
18142;SDS011;9197;50.930;3.140;2023-03-08T09:44:12;12.30;;;8.83;;
18142;SDS011;9197;50.930;3.140;2023-03-08T09:46:45;15.60;;;9.23;;
18142;SDS011;9197;50.930;3.140;2023-03-08T09:49:15;15.00;;;8.93;;
18142;SDS011;9197;50.930;3.140;2023-03-08T09:51:45;15.73;;;9.00;;
18142;SDS011;9197;50.930;3.140;2023-03-08T09:54:15;10.63;;;7.97;;
18142;SDS011;9197;50.930;3.140;2023-03-08T09:56:44;9.03;;;6.87;;
18142;SDS011;9197;50.930;3.140;2023-03-08T09:59:13;11.03;;;8.77;;
18142;SDS011;9197;50.930;3.140;2023-03-08T10:01:44;11.50;;;7.77;;
18142;SDS011;9197;50.930;3.140;2023-03-08T10:04:23;13.50;;;9.63;;
18142;SDS011;9197;50.930;3.140;2023-03-08T10:07:01;10.77;;;6.50;;
18142;SDS011;9197;50.930;3.140;2023-03-08T12:41:20;20.53;;;13.70;;
18142;SDS011;9197;50.930;3.140;2023-03-08T12:43:56;18.07;;;13.80;;
18142;SDS011;9197;50.930;3.140;2023-03-08T12:46:24;17.50;;;12.53;;
18142;SDS011;9197;50.930;3.140;2023-03-08T12:48:51;18.30;;;14.60;;
18142;SDS011;9197;50.930;3.140;2023-03-08T12:51:19;22.30;;;15.50;;
18142;SDS011;9197;50.930;3.140;2023-03-08T12:53:54;17.47;;;13.80;;
18142;SDS011;9197;50.930;3.140;2023-03-08T12:56:24;14.57;;;11.67;;
18142;SDS011;9197;50.930;3.140;2023-03-08T12:58:53;19.97;;;14.83;;
18142;SDS011;9197;50.930;3.140;2023-03-08T13:04:25;20.43;;;14.67;;
18142;SDS011;9197;50.930;3.140;2023-03-08T13:09:35;20.50;;;14.93;;
18142;SDS011;9197;50.930;3.140;2023-03-08T13:12:19;20.43;;;14.13;;
18142;SDS011;9197;50.930;3.140;2023-03-08T13:14:57;19.03;;;14.10;;
18142;SDS011;9197;50.930;3.140;2023-03-08T13:17:32;17.63;;;13.57;;
18142;SDS011;9197;50.930;3.140;2023-03-08T13:20:01;16.47;;;12.87;;
18142;SDS011;9197;50.930;3.140;2023-03-08T13:22:33;17.33;;;14.20;;
18142;SDS011;9197;50.930;3.140;2023-03-08T13:25:04;22.20;;;16.10;;
18142;SDS011;9197;50.930;3.140;2023-03-08T13:27:36;19.73;;;14.63;;
18142;SDS011;9197;50.930;3.140;2023-03-08T13:30:17;19.13;;;14.50;;
18142;SDS011;9197;50.930;3.140;2023-03-08T13:32:45;15.97;;;13.30;;
18142;SDS011;9197;50.930;3.140;2023-03-08T13:35:14;19.37;;;14.37;;
18142;SDS011;9197;50.930;3.140;2023-03-08T13:37:42;22.07;;;16.40;;
18142;SDS011;9197;50.930;3.140;2023-03-08T13:40:18;21.70;;;15.17;;
18142;SDS011;9197;50.930;3.140;2023-03-08T13:42:53;18.83;;;15.67;;
18142;SDS011;9197;50.930;3.140;2023-03-08T13:45:21;15.67;;;10.93;;
18142;SDS011;9197;50.930;3.140;2023-03-08T13:47:48;23.07;;;17.23;;
18142;SDS011;9197;50.930;3.140;2023-03-08T13:50:16;23.90;;;17.83;;
18142;SDS011;9197;50.930;3.140;2023-03-08T13:52:44;21.63;;;15.87;;
18142;SDS011;9197;50.930;3.140;2023-03-08T13:55:14;17.73;;;14.77;;
18142;SDS011;9197;50.930;3.140;2023-03-08T13:57:46;17.40;;;13.83;;
18142;SDS011;9197;50.930;3.140;2023-03-08T14:00:21;21.17;;;14.87;;
18142;SDS011;9197;50.930;3.140;2023-03-08T14:02:49;19.43;;;14.93;;
18142;SDS011;9197;50.930;3.140;2023-03-08T14:05:17;20.17;;;15.07;;
18142;SDS011;9197;50.930;3.140;2023-03-08T14:07:54;18.93;;;14.53;;
18142;SDS011;9197;50.930;3.140;2023-03-08T14:10:21;23.13;;;17.40;;
18142;SDS011;9197;50.930;3.140;2023-03-08T14:12:51;25.40;;;18.20;;
18142;SDS011;9197;50.930;3.140;2023-03-08T14:15:20;21.60;;;16.77;;
18142;SDS011;9197;50.930;3.140;2023-03-08T14:17:48;22.67;;;15.50;;
18142;SDS011;9197;50.930;3.140;2023-03-08T14:20:16;23.63;;;17.00;;
18142;SDS011;9197;50.930;3.140;2023-03-08T14:22:45;22.67;;;15.20;;
18142;SDS011;9197;50.930;3.140;2023-03-08T14:25:21;21.47;;;15.47;;
18142;SDS011;9197;50.930;3.140;2023-03-08T14:27:48;25.63;;;18.23;;
18142;SDS011;9197;50.930;3.140;2023-03-08T14:30:16;20.33;;;15.13;;
18142;SDS011;9197;50.930;3.140;2023-03-08T14:32:56;18.50;;;14.30;;
18142;SDS011;9197;50.930;3.140;2023-03-08T14:35:24;22.17;;;16.17;;
18142;SDS011;9197;50.930;3.140;2023-03-08T14:37:52;20.90;;;14.90;;
18142;SDS011;9197;50.930;3.140;2023-03-08T14:40:24;23.80;;;17.30;;
18142;SDS011;9197;50.930;3.140;2023-03-08T14:42:53;28.20;;;20.00;;
18142;SDS011;9197;50.930;3.140;2023-03-08T14:45:21;31.37;;;20.90;;
18142;SDS011;9197;50.930;3.140;2023-03-08T14:47:49;32.00;;;20.43;;
18142;SDS011;9197;50.930;3.140;2023-03-08T14:50:19;21.27;;;12.93;;
18142;SDS011;9197;50.930;3.140;2023-03-08T14:52:47;22.90;;;15.90;;
18142;SDS011;9197;50.930;3.140;2023-03-08T14:55:18;24.20;;;18.20;;
18142;SDS011;9197;50.930;3.140;2023-03-08T14:57:45;28.70;;;20.00;;
18142;SDS011;9197;50.930;3.140;2023-03-08T15:00:13;31.60;;;21.73;;
18142;SDS011;9197;50.930;3.140;2023-03-08T15:02:41;16.40;;;12.10;;
18142;SDS011;9197;50.930;3.140;2023-03-08T15:05:11;30.90;;;20.50;;
18142;SDS011;9197;50.930;3.140;2023-03-08T15:07:40;24.03;;;15.87;;
18142;SDS011;9197;50.930;3.140;2023-03-08T15:10:10;35.97;;;24.93;;
18142;SDS011;9197;50.930;3.140;2023-03-08T15:12:42;24.90;;;15.50;;
18142;SDS011;9197;50.930;3.140;2023-03-08T15:15:11;28.67;;;19.23;;
18142;SDS011;9197;50.930;3.140;2023-03-08T15:17:38;31.83;;;22.40;;
18142;SDS011;9197;50.930;3.140;2023-03-08T15:20:05;26.77;;;20.50;;
18142;SDS011;9197;50.930;3.140;2023-03-08T15:22:33;30.30;;;22.47;;
18142;SDS011;9197;50.930;3.140;2023-03-08T15:25:10;17.43;;;12.67;;
18142;SDS011;9197;50.930;3.140;2023-03-08T15:27:38;38.80;;;28.73;;
18142;SDS011;9197;50.930;3.140;2023-03-08T15:30:08;35.93;;;24.90;;
18142;SDS011;9197;50.930;3.140;2023-03-08T15:32:38;25.17;;;16.57;;
18142;SDS011;9197;50.930;3.140;2023-03-08T15:35:05;25.33;;;18.07;;
18142;SDS011;9197;50.930;3.140;2023-03-08T15:37:33;25.77;;;16.10;;
18142;SDS011;9197;50.930;3.140;2023-03-08T15:40:00;16.57;;;11.73;;
18142;SDS011;9197;50.930;3.140;2023-03-08T15:42:30;18.47;;;13.80;;
18142;SDS011;9197;50.930;3.140;2023-03-08T15:44:57;24.90;;;18.37;;
18142;SDS011;9197;50.930;3.140;2023-03-08T15:47:25;21.23;;;15.20;;
18142;SDS011;9197;50.930;3.140;2023-03-08T15:49:52;19.20;;;13.40;;
18142;SDS011;9197;50.930;3.140;2023-03-08T15:52:19;26.57;;;15.90;;
18142;SDS011;9197;50.930;3.140;2023-03-08T15:54:47;15.67;;;12.13;;
18142;SDS011;9197;50.930;3.140;2023-03-08T15:57:14;26.53;;;17.63;;
18142;SDS011;9197;50.930;3.140;2023-03-08T15:59:43;22.63;;;16.67;;
18142;SDS011;9197;50.930;3.140;2023-03-08T16:02:11;25.90;;;17.07;;
18142;SDS011;9197;50.930;3.140;2023-03-08T16:04:39;22.20;;;17.27;;
18142;SDS011;9197;50.930;3.140;2023-03-08T16:07:09;15.90;;;12.10;;
18142;SDS011;9197;50.930;3.140;2023-03-08T16:09:36;24.27;;;17.77;;
18142;SDS011;9197;50.930;3.140;2023-03-08T16:12:04;20.73;;;12.80;;
18142;SDS011;9197;50.930;3.140;2023-03-08T16:14:31;22.03;;;16.50;;
18142;SDS011;9197;50.930;3.140;2023-03-08T16:17:00;20.90;;;16.63;;
18142;SDS011;9197;50.930;3.140;2023-03-08T16:19:29;29.27;;;18.90;;
18142;SDS011;9197;50.930;3.140;2023-03-08T16:21:56;23.13;;;16.37;;
18142;SDS011;9197;50.930;3.140;2023-03-08T16:24:24;19.90;;;12.53;;
18142;SDS011;9197;50.930;3.140;2023-03-08T16:26:51;22.73;;;15.17;;
18142;SDS011;9197;50.930;3.140;2023-03-08T16:29:18;26.77;;;18.57;;
18142;SDS011;9197;50.930;3.140;2023-03-08T16:31:46;30.37;;;19.13;;
18142;SDS011;9197;50.930;3.140;2023-03-08T16:34:14;30.87;;;19.83;;
18142;SDS011;9197;50.930;3.140;2023-03-08T16:36:42;27.87;;;19.40;;
18142;SDS011;9197;50.930;3.140;2023-03-08T16:39:09;26.13;;;16.83;;
18142;SDS011;9197;50.930;3.140;2023-03-08T16:41:37;27.33;;;17.87;;
18142;SDS011;9197;50.930;3.140;2023-03-08T16:44:04;26.23;;;16.80;;
18142;SDS011;9197;50.930;3.140;2023-03-08T16:46:32;25.23;;;17.60;;
18142;SDS011;9197;50.930;3.140;2023-03-08T16:49:00;28.93;;;17.87;;
18142;SDS011;9197;50.930;3.140;2023-03-08T16:51:29;27.60;;;18.53;;
18142;SDS011;9197;50.930;3.140;2023-03-08T16:53:56;27.27;;;18.27;;
18142;SDS011;9197;50.930;3.140;2023-03-08T16:56:24;29.67;;;19.53;;
18142;SDS011;9197;50.930;3.140;2023-03-08T16:58:52;26.73;;;19.27;;
18142;SDS011;9197;50.930;3.140;2023-03-08T17:01:19;30.33;;;18.47;;
18142;SDS011;9197;50.930;3.140;2023-03-08T17:03:46;28.07;;;17.73;;
18142;SDS011;9197;50.930;3.140;2023-03-08T17:06:14;34.00;;;21.57;;
18142;SDS011;9197;50.930;3.140;2023-03-08T17:08:43;35.37;;;20.90;;
18142;SDS011;9197;50.930;3.140;2023-03-08T17:11:14;28.47;;;19.93;;
18142;SDS011;9197;50.930;3.140;2023-03-08T17:13:42;30.70;;;19.40;;
18142;SDS011;9197;50.930;3.140;2023-03-08T17:16:10;28.37;;;19.37;;
18142;SDS011;9197;50.930;3.140;2023-03-08T17:18:37;30.90;;;18.77;;
18142;SDS011;9197;50.930;3.140;2023-03-08T17:21:05;24.87;;;15.47;;
18142;SDS011;9197;50.930;3.140;2023-03-08T17:23:33;28.47;;;19.13;;
18142;SDS011;9197;50.930;3.140;2023-03-08T17:26:03;29.50;;;19.13;;
18142;SDS011;9197;50.930;3.140;2023-03-08T17:28:30;26.70;;;17.73;;
18142;SDS011;9197;50.930;3.140;2023-03-08T17:30:57;98.07;;;56.93;;